sensor_id;sensor_type;location;lat;lon;timestamp;P1;durP1;ratioP1;P2;durP2;ratioP2
38937;SDS011;24727;51.974;20.868;2023-09-30T00:02:27;15.43;;;10.85;;
38937;SDS011;24727;51.974;20.868;2023-09-30T00:04:53;14.50;;;11.02;;
38937;SDS011;24727;51.974;20.868;2023-09-30T00:07:19;14.57;;;10.30;;
38937;SDS011;24727;51.974;20.868;2023-09-30T00:09:45;16.67;;;11.27;;
38937;SDS011;24727;51.974;20.868;2023-09-30T00:12:11;15.95;;;10.48;;
38937;SDS011;24727;51.974;20.868;2023-09-30T00:14:37;15.48;;;11.30;;
38937;SDS011;24727;51.974;20.868;2023-09-30T00:17:03;20.95;;;11.00;;
38937;SDS011;24727;51.974;20.868;2023-09-30T00:19:31;19.17;;;11.20;;
38937;SDS011;24727;51.974;20.868;2023-09-30T00:21:58;15.05;;;11.15;;
38937;SDS011;24727;51.974;20.868;2023-09-30T00:24:25;17.73;;;11.30;;
38937;SDS011;24727;51.974;20.868;2023-09-30T00:26:51;13.40;;;11.18;;
38937;SDS011;24727;51.974;20.868;2023-09-30T00:29:17;21.55;;;10.93;;
38937;SDS011;24727;51.974;20.868;2023-09-30T00:31:44;14.93;;;11.07;;
38937;SDS011;24727;51.974;20.868;2023-09-30T00:34:10;17.55;;;10.80;;
38937;SDS011;24727;51.974;20.868;2023-09-30T00:36:37;19.65;;;11.73;;
38937;SDS011;24727;51.974;20.868;2023-09-30T00:39:04;16.92;;;11.00;;
38937;SDS011;24727;51.974;20.868;2023-09-30T00:41:30;12.88;;;10.27;;
38937;SDS011;24727;51.974;20.868;2023-09-30T00:43:56;13.75;;;10.10;;
38937;SDS011;24727;51.974;20.868;2023-09-30T00:46:30;14.20;;;11.25;;
38937;SDS011;24727;51.974;20.868;2023-09-30T00:48:58;16.40;;;11.55;;
38937;SDS011;24727;51.974;20.868;2023-09-30T00:51:26;16.83;;;10.68;;
38937;SDS011;24727;51.974;20.868;2023-09-30T00:53:53;19.23;;;11.15;;
38937;SDS011;24727;51.974;20.868;2023-09-30T00:56:22;15.65;;;9.65;;
38937;SDS011;24727;51.974;20.868;2023-09-30T00:58:50;16.63;;;11.18;;
38937;SDS011;24727;51.974;20.868;2023-09-30T01:01:18;16.00;;;10.38;;
38937;SDS011;24727;51.974;20.868;2023-09-30T01:03:49;18.63;;;10.90;;
38937;SDS011;24727;51.974;20.868;2023-09-30T01:06:15;19.85;;;10.43;;
38937;SDS011;24727;51.974;20.868;2023-09-30T01:08:42;15.68;;;10.63;;
38937;SDS011;24727;51.974;20.868;2023-09-30T01:11:09;19.60;;;10.77;;
38937;SDS011;24727;51.974;20.868;2023-09-30T01:13:36;13.88;;;10.20;;
38937;SDS011;24727;51.974;20.868;2023-09-30T01:16:06;21.20;;;10.30;;
38937;SDS011;24727;51.974;20.868;2023-09-30T01:18:36;15.93;;;10.27;;
38937;SDS011;24727;51.974;20.868;2023-09-30T01:21:03;14.88;;;10.23;;
38937;SDS011;24727;51.974;20.868;2023-09-30T01:23:31;16.10;;;11.07;;
38937;SDS011;24727;51.974;20.868;2023-09-30T01:26:02;27.45;;;11.40;;
38937;SDS011;24727;51.974;20.868;2023-09-30T01:28:29;13.00;;;10.70;;
38937;SDS011;24727;51.974;20.868;2023-09-30T01:30:56;14.02;;;10.25;;
38937;SDS011;24727;51.974;20.868;2023-09-30T01:33:23;16.63;;;10.88;;
38937;SDS011;24727;51.974;20.868;2023-09-30T01:35:50;24.10;;;11.65;;
38937;SDS011;24727;51.974;20.868;2023-09-30T01:38:17;14.85;;;10.40;;
38937;SDS011;24727;51.974;20.868;2023-09-30T01:40:43;14.75;;;9.43;;
38937;SDS011;24727;51.974;20.868;2023-09-30T01:43:10;19.42;;;10.80;;
38937;SDS011;24727;51.974;20.868;2023-09-30T01:45:40;14.07;;;10.68;;
38937;SDS011;24727;51.974;20.868;2023-09-30T01:48:06;12.73;;;10.18;;
38937;SDS011;24727;51.974;20.868;2023-09-30T01:50:38;17.58;;;10.10;;
38937;SDS011;24727;51.974;20.868;2023-09-30T01:53:09;18.83;;;10.77;;
38937;SDS011;24727;51.974;20.868;2023-09-30T01:55:38;12.68;;;10.05;;
38937;SDS011;24727;51.974;20.868;2023-09-30T01:58:06;13.95;;;10.35;;
38937;SDS011;24727;51.974;20.868;2023-09-30T02:00:32;13.32;;;9.65;;
38937;SDS011;24727;51.974;20.868;2023-09-30T02:03:00;13.63;;;10.70;;
38937;SDS011;24727;51.974;20.868;2023-09-30T02:05:26;15.25;;;10.13;;
38937;SDS011;24727;51.974;20.868;2023-09-30T02:07:52;16.35;;;9.93;;
38937;SDS011;24727;51.974;20.868;2023-09-30T02:10:18;12.95;;;9.80;;
38937;SDS011;24727;51.974;20.868;2023-09-30T02:12:45;12.55;;;9.80;;
38937;SDS011;24727;51.974;20.868;2023-09-30T02:15:11;16.40;;;10.27;;
38937;SDS011;24727;51.974;20.868;2023-09-30T02:17:38;16.10;;;10.68;;
38937;SDS011;24727;51.974;20.868;2023-09-30T02:20:05;17.23;;;10.90;;
38937;SDS011;24727;51.974;20.868;2023-09-30T02:22:38;13.38;;;10.52;;
38937;SDS011;24727;51.974;20.868;2023-09-30T02:25:05;13.25;;;9.85;;
38937;SDS011;24727;51.974;20.868;2023-09-30T02:27:32;15.25;;;9.95;;
38937;SDS011;24727;51.974;20.868;2023-09-30T02:29:59;13.00;;;10.00;;
38937;SDS011;24727;51.974;20.868;2023-09-30T02:32:25;15.02;;;10.40;;
38937;SDS011;24727;51.974;20.868;2023-09-30T02:34:51;15.80;;;10.43;;
38937;SDS011;24727;51.974;20.868;2023-09-30T02:37:17;13.80;;;9.80;;
38937;SDS011;24727;51.974;20.868;2023-09-30T02:39:43;17.98;;;10.07;;
38937;SDS011;24727;51.974;20.868;2023-09-30T02:42:10;17.08;;;10.43;;
38937;SDS011;24727;51.974;20.868;2023-09-30T02:44:36;15.95;;;10.85;;
38937;SDS011;24727;51.974;20.868;2023-09-30T02:47:02;14.10;;;9.73;;
38937;SDS011;24727;51.974;20.868;2023-09-30T02:49:28;15.57;;;10.68;;
38937;SDS011;24727;51.974;20.868;2023-09-30T02:51:57;19.42;;;10.57;;
38937;SDS011;24727;51.974;20.868;2023-09-30T02:54:23;13.80;;;9.90;;
38937;SDS011;24727;51.974;20.868;2023-09-30T02:56:49;14.23;;;10.52;;
38937;SDS011;24727;51.974;20.868;2023-09-30T02:59:15;18.48;;;10.55;;
38937;SDS011;24727;51.974;20.868;2023-09-30T03:01:42;13.50;;;10.18;;
38937;SDS011;24727;51.974;20.868;2023-09-30T03:04:08;17.98;;;11.00;;
38937;SDS011;24727;51.974;20.868;2023-09-30T03:06:39;13.98;;;9.50;;
38937;SDS011;24727;51.974;20.868;2023-09-30T03:09:06;17.70;;;10.00;;
38937;SDS011;24727;51.974;20.868;2023-09-30T03:11:34;15.07;;;10.82;;
38937;SDS011;24727;51.974;20.868;2023-09-30T03:14:01;15.80;;;9.70;;
38937;SDS011;24727;51.974;20.868;2023-09-30T03:16:29;15.52;;;10.30;;
38937;SDS011;24727;51.974;20.868;2023-09-30T03:18:56;12.35;;;10.25;;
38937;SDS011;24727;51.974;20.868;2023-09-30T03:23:52;14.55;;;9.98;;
38937;SDS011;24727;51.974;20.868;2023-09-30T03:26:18;16.55;;;10.60;;
38937;SDS011;24727;51.974;20.868;2023-09-30T03:28:46;16.77;;;9.40;;
38937;SDS011;24727;51.974;20.868;2023-09-30T03:31:12;16.63;;;10.18;;
38937;SDS011;24727;51.974;20.868;2023-09-30T03:33:38;16.20;;;10.70;;
38937;SDS011;24727;51.974;20.868;2023-09-30T03:36:04;13.85;;;10.32;;
38937;SDS011;24727;51.974;20.868;2023-09-30T03:38:36;11.73;;;10.02;;
38937;SDS011;24727;51.974;20.868;2023-09-30T03:41:02;13.75;;;9.98;;
38937;SDS011;24727;51.974;20.868;2023-09-30T03:43:28;15.18;;;10.63;;
38937;SDS011;24727;51.974;20.868;2023-09-30T03:45:56;23.25;;;11.23;;
38937;SDS011;24727;51.974;20.868;2023-09-30T03:48:23;16.15;;;10.68;;
38937;SDS011;24727;51.974;20.868;2023-09-30T03:50:49;16.55;;;10.00;;
38937;SDS011;24727;51.974;20.868;2023-09-30T03:53:20;14.88;;;10.30;;
38937;SDS011;24727;51.974;20.868;2023-09-30T03:55:46;13.10;;;9.65;;
38937;SDS011;24727;51.974;20.868;2023-09-30T03:58:13;16.83;;;10.65;;
38937;SDS011;24727;51.974;20.868;2023-09-30T04:00:41;19.60;;;10.48;;
38937;SDS011;24727;51.974;20.868;2023-09-30T04:03:06;14.00;;;10.07;;
38937;SDS011;24727;51.974;20.868;2023-09-30T04:05:34;18.90;;;10.02;;
38937;SDS011;24727;51.974;20.868;2023-09-30T04:08:02;16.77;;;10.90;;
38937;SDS011;24727;51.974;20.868;2023-09-30T04:10:30;13.00;;;10.65;;
38937;SDS011;24727;51.974;20.868;2023-09-30T04:12:56;14.23;;;11.02;;
38937;SDS011;24727;51.974;20.868;2023-09-30T04:15:22;16.35;;;10.75;;
38937;SDS011;24727;51.974;20.868;2023-09-30T04:17:48;17.10;;;11.23;;
38937;SDS011;24727;51.974;20.868;2023-09-30T04:20:14;18.80;;;11.60;;
38937;SDS011;24727;51.974;20.868;2023-09-30T04:22:49;17.30;;;10.80;;
38937;SDS011;24727;51.974;20.868;2023-09-30T04:25:16;16.10;;;10.07;;
38937;SDS011;24727;51.974;20.868;2023-09-30T04:27:43;13.32;;;9.80;;
38937;SDS011;24727;51.974;20.868;2023-09-30T04:30:10;16.45;;;10.32;;
38937;SDS011;24727;51.974;20.868;2023-09-30T04:32:37;16.33;;;10.55;;
38937;SDS011;24727;51.974;20.868;2023-09-30T04:35:05;17.83;;;10.35;;
38937;SDS011;24727;51.974;20.868;2023-09-30T04:37:33;13.77;;;9.77;;
38937;SDS011;24727;51.974;20.868;2023-09-30T04:40:03;14.73;;;10.52;;
38937;SDS011;24727;51.974;20.868;2023-09-30T04:42:43;13.82;;;10.02;;
38937;SDS011;24727;51.974;20.868;2023-09-30T04:45:10;14.10;;;10.30;;
38937;SDS011;24727;51.974;20.868;2023-09-30T04:47:37;14.48;;;11.27;;
38937;SDS011;24727;51.974;20.868;2023-09-30T04:50:05;15.88;;;10.10;;
38937;SDS011;24727;51.974;20.868;2023-09-30T04:52:33;18.15;;;10.93;;
38937;SDS011;24727;51.974;20.868;2023-09-30T04:55:00;16.23;;;9.68;;
38937;SDS011;24727;51.974;20.868;2023-09-30T04:57:27;14.57;;;10.30;;
38937;SDS011;24727;51.974;20.868;2023-09-30T05:00:06;16.20;;;10.85;;
38937;SDS011;24727;51.974;20.868;2023-09-30T05:02:43;14.15;;;10.00;;
38937;SDS011;24727;51.974;20.868;2023-09-30T05:05:12;15.45;;;10.18;;
38937;SDS011;24727;51.974;20.868;2023-09-30T05:07:41;18.75;;;9.85;;
38937;SDS011;24727;51.974;20.868;2023-09-30T05:10:07;13.05;;;10.65;;
38937;SDS011;24727;51.974;20.868;2023-09-30T05:12:38;14.80;;;9.47;;
38937;SDS011;24727;51.974;20.868;2023-09-30T05:15:16;12.77;;;10.02;;
38937;SDS011;24727;51.974;20.868;2023-09-30T05:17:48;14.95;;;10.13;;
38937;SDS011;24727;51.974;20.868;2023-09-30T05:20:14;14.27;;;10.95;;
38937;SDS011;24727;51.974;20.868;2023-09-30T05:22:45;15.52;;;10.38;;
38937;SDS011;24727;51.974;20.868;2023-09-30T05:25:15;18.23;;;10.95;;
38937;SDS011;24727;51.974;20.868;2023-09-30T05:27:42;17.08;;;10.85;;
38937;SDS011;24727;51.974;20.868;2023-09-30T05:30:12;14.00;;;11.13;;
38937;SDS011;24727;51.974;20.868;2023-09-30T05:32:41;18.48;;;10.32;;
38937;SDS011;24727;51.974;20.868;2023-09-30T05:35:07;15.02;;;9.60;;
38937;SDS011;24727;51.974;20.868;2023-09-30T05:37:42;16.77;;;11.02;;
38937;SDS011;24727;51.974;20.868;2023-09-30T05:40:10;22.23;;;11.40;;
38937;SDS011;24727;51.974;20.868;2023-09-30T05:42:55;17.83;;;11.70;;
38937;SDS011;24727;51.974;20.868;2023-09-30T05:45:30;16.75;;;11.07;;
38937;SDS011;24727;51.974;20.868;2023-09-30T05:48:03;18.77;;;10.95;;
38937;SDS011;24727;51.974;20.868;2023-09-30T05:50:34;16.10;;;11.50;;
38937;SDS011;24727;51.974;20.868;2023-09-30T05:53:03;17.33;;;11.60;;
38937;SDS011;24727;51.974;20.868;2023-09-30T05:55:29;16.67;;;11.73;;
38937;SDS011;24727;51.974;20.868;2023-09-30T05:57:56;23.23;;;12.20;;
38937;SDS011;24727;51.974;20.868;2023-09-30T06:00:22;19.05;;;14.02;;
38937;SDS011;24727;51.974;20.868;2023-09-30T06:02:56;20.90;;;14.32;;
38937;SDS011;24727;51.974;20.868;2023-09-30T06:05:22;24.80;;;18.00;;
38937;SDS011;24727;51.974;20.868;2023-09-30T06:07:49;23.67;;;16.83;;
38937;SDS011;24727;51.974;20.868;2023-09-30T06:10:15;26.75;;;16.02;;
38937;SDS011;24727;51.974;20.868;2023-09-30T06:12:46;16.88;;;14.98;;
38937;SDS011;24727;51.974;20.868;2023-09-30T06:15:14;19.83;;;15.50;;
38937;SDS011;24727;51.974;20.868;2023-09-30T06:17:41;21.65;;;19.30;;
38937;SDS011;24727;51.974;20.868;2023-09-30T06:20:08;26.67;;;24.10;;
38937;SDS011;24727;51.974;20.868;2023-09-30T06:22:41;30.45;;;26.77;;
38937;SDS011;24727;51.974;20.868;2023-09-30T06:25:11;32.83;;;26.33;;
38937;SDS011;24727;51.974;20.868;2023-09-30T06:27:41;32.72;;;29.35;;
38937;SDS011;24727;51.974;20.868;2023-09-30T06:30:10;37.10;;;29.80;;
38937;SDS011;24727;51.974;20.868;2023-09-30T06:32:37;30.23;;;24.77;;
38937;SDS011;24727;51.974;20.868;2023-09-30T06:35:04;24.00;;;20.17;;
38937;SDS011;24727;51.974;20.868;2023-09-30T06:37:34;23.48;;;15.68;;
38937;SDS011;24727;51.974;20.868;2023-09-30T06:40:00;16.98;;;14.02;;
38937;SDS011;24727;51.974;20.868;2023-09-30T06:42:29;26.88;;;15.15;;
38937;SDS011;24727;51.974;20.868;2023-09-30T06:44:57;22.15;;;15.65;;
38937;SDS011;24727;51.974;20.868;2023-09-30T06:47:23;22.70;;;16.50;;
38937;SDS011;24727;51.974;20.868;2023-09-30T06:49:49;23.13;;;17.40;;
38937;SDS011;24727;51.974;20.868;2023-09-30T06:52:16;27.67;;;21.73;;
38937;SDS011;24727;51.974;20.868;2023-09-30T06:54:42;29.50;;;23.30;;
38937;SDS011;24727;51.974;20.868;2023-09-30T06:57:09;27.20;;;23.15;;
38937;SDS011;24727;51.974;20.868;2023-09-30T06:59:35;29.25;;;21.92;;
38937;SDS011;24727;51.974;20.868;2023-09-30T07:02:02;21.30;;;18.75;;
38937;SDS011;24727;51.974;20.868;2023-09-30T07:04:29;23.38;;;17.02;;
38937;SDS011;24727;51.974;20.868;2023-09-30T07:06:56;20.65;;;16.30;;
38937;SDS011;24727;51.974;20.868;2023-09-30T07:09:22;22.80;;;15.43;;
38937;SDS011;24727;51.974;20.868;2023-09-30T07:11:48;21.00;;;16.73;;
38937;SDS011;24727;51.974;20.868;2023-09-30T07:14:20;27.15;;;17.15;;
38937;SDS011;24727;51.974;20.868;2023-09-30T07:16:47;27.23;;;18.55;;
38937;SDS011;24727;51.974;20.868;2023-09-30T07:19:14;27.20;;;20.42;;
38937;SDS011;24727;51.974;20.868;2023-09-30T07:21:40;25.58;;;21.13;;
38937;SDS011;24727;51.974;20.868;2023-09-30T07:24:06;30.85;;;23.48;;
38937;SDS011;24727;51.974;20.868;2023-09-30T07:26:32;34.70;;;26.08;;
38937;SDS011;24727;51.974;20.868;2023-09-30T07:28:58;31.30;;;25.55;;
38937;SDS011;24727;51.974;20.868;2023-09-30T07:31:25;29.08;;;22.80;;
38937;SDS011;24727;51.974;20.868;2023-09-30T07:33:51;22.55;;;19.60;;
38937;SDS011;24727;51.974;20.868;2023-09-30T07:36:17;23.98;;;18.83;;
38937;SDS011;24727;51.974;20.868;2023-09-30T07:38:43;23.75;;;18.90;;
38937;SDS011;24727;51.974;20.868;2023-09-30T07:41:10;23.60;;;17.98;;
38937;SDS011;24727;51.974;20.868;2023-09-30T07:43:37;20.10;;;17.17;;
38937;SDS011;24727;51.974;20.868;2023-09-30T07:46:06;23.77;;;17.25;;
38937;SDS011;24727;51.974;20.868;2023-09-30T07:48:33;22.17;;;17.40;;
38937;SDS011;24727;51.974;20.868;2023-09-30T07:51:01;31.05;;;18.05;;
38937;SDS011;24727;51.974;20.868;2023-09-30T07:53:27;22.08;;;18.33;;
38937;SDS011;24727;51.974;20.868;2023-09-30T07:55:55;23.98;;;18.00;;
38937;SDS011;24727;51.974;20.868;2023-09-30T07:58:21;28.58;;;19.15;;
38937;SDS011;24727;51.974;20.868;2023-09-30T08:00:48;26.13;;;23.33;;
38937;SDS011;24727;51.974;20.868;2023-09-30T08:03:14;30.17;;;25.00;;
38937;SDS011;24727;51.974;20.868;2023-09-30T08:05:41;35.70;;;27.17;;
38937;SDS011;24727;51.974;20.868;2023-09-30T08:08:07;32.95;;;27.65;;
38937;SDS011;24727;51.974;20.868;2023-09-30T08:10:33;28.42;;;25.55;;
38937;SDS011;24727;51.974;20.868;2023-09-30T08:13:01;28.02;;;24.23;;
38937;SDS011;24727;51.974;20.868;2023-09-30T08:15:28;25.67;;;21.23;;
38937;SDS011;24727;51.974;20.868;2023-09-30T08:17:55;26.65;;;21.27;;
38937;SDS011;24727;51.974;20.868;2023-09-30T08:20:21;26.48;;;21.63;;
38937;SDS011;24727;51.974;20.868;2023-09-30T08:22:47;24.73;;;19.90;;
38937;SDS011;24727;51.974;20.868;2023-09-30T08:25:13;26.80;;;18.13;;
38937;SDS011;24727;51.974;20.868;2023-09-30T08:27:40;21.48;;;17.42;;
38937;SDS011;24727;51.974;20.868;2023-09-30T08:30:07;20.42;;;17.80;;
38937;SDS011;24727;51.974;20.868;2023-09-30T08:32:37;21.45;;;16.27;;
38937;SDS011;24727;51.974;20.868;2023-09-30T08:35:04;21.77;;;16.98;;
38937;SDS011;24727;51.974;20.868;2023-09-30T08:37:31;25.23;;;17.50;;
38937;SDS011;24727;51.974;20.868;2023-09-30T08:39:58;23.10;;;18.17;;
38937;SDS011;24727;51.974;20.868;2023-09-30T08:42:24;25.98;;;19.25;;
38937;SDS011;24727;51.974;20.868;2023-09-30T08:44:58;26.52;;;19.58;;
38937;SDS011;24727;51.974;20.868;2023-09-30T08:47:27;25.52;;;19.33;;
38937;SDS011;24727;51.974;20.868;2023-09-30T08:49:54;25.40;;;19.38;;
38937;SDS011;24727;51.974;20.868;2023-09-30T08:52:30;25.90;;;19.90;;
38937;SDS011;24727;51.974;20.868;2023-09-30T08:54:58;25.33;;;18.60;;
38937;SDS011;24727;51.974;20.868;2023-09-30T08:57:25;25.23;;;20.08;;
38937;SDS011;24727;51.974;20.868;2023-09-30T08:59:52;25.58;;;20.42;;
38937;SDS011;24727;51.974;20.868;2023-09-30T09:02:19;23.33;;;19.50;;
38937;SDS011;24727;51.974;20.868;2023-09-30T09:04:45;27.95;;;21.75;;
38937;SDS011;24727;51.974;20.868;2023-09-30T09:07:11;24.05;;;20.95;;
38937;SDS011;24727;51.974;20.868;2023-09-30T09:09:37;26.95;;;21.23;;
38937;SDS011;24727;51.974;20.868;2023-09-30T09:12:05;23.67;;;20.90;;
38937;SDS011;24727;51.974;20.868;2023-09-30T09:14:39;35.67;;;22.92;;
38937;SDS011;24727;51.974;20.868;2023-09-30T09:17:06;30.73;;;22.00;;
38937;SDS011;24727;51.974;20.868;2023-09-30T09:19:34;30.55;;;23.58;;
38937;SDS011;24727;51.974;20.868;2023-09-30T09:22:02;27.50;;;23.27;;
38937;SDS011;24727;51.974;20.868;2023-09-30T09:24:41;24.83;;;22.17;;
38937;SDS011;24727;51.974;20.868;2023-09-30T09:27:11;27.00;;;22.52;;
38937;SDS011;24727;51.974;20.868;2023-09-30T09:29:42;28.20;;;22.15;;
38937;SDS011;24727;51.974;20.868;2023-09-30T09:32:10;26.35;;;23.50;;
38937;SDS011;24727;51.974;20.868;2023-09-30T09:34:42;31.83;;;23.42;;
38937;SDS011;24727;51.974;20.868;2023-09-30T09:37:18;28.75;;;23.73;;
38937;SDS011;24727;51.974;20.868;2023-09-30T09:39:52;36.40;;;24.80;;
38937;SDS011;24727;51.974;20.868;2023-09-30T09:42:24;33.47;;;23.73;;
38937;SDS011;24727;51.974;20.868;2023-09-30T09:44:55;30.35;;;24.13;;
38937;SDS011;24727;51.974;20.868;2023-09-30T09:47:35;27.65;;;22.40;;
38937;SDS011;24727;51.974;20.868;2023-09-30T09:50:03;30.50;;;21.35;;
38937;SDS011;24727;51.974;20.868;2023-09-30T09:52:35;26.88;;;20.73;;
38937;SDS011;24727;51.974;20.868;2023-09-30T09:55:03;29.08;;;19.50;;
38937;SDS011;24727;51.974;20.868;2023-09-30T09:57:31;27.13;;;18.27;;
38937;SDS011;24727;51.974;20.868;2023-09-30T09:59:59;23.23;;;17.65;;
38937;SDS011;24727;51.974;20.868;2023-09-30T10:02:25;20.60;;;17.25;;
38937;SDS011;24727;51.974;20.868;2023-09-30T10:04:54;23.08;;;17.08;;
38937;SDS011;24727;51.974;20.868;2023-09-30T10:07:28;25.10;;;17.38;;
38937;SDS011;24727;51.974;20.868;2023-09-30T10:10:00;22.38;;;18.02;;
38937;SDS011;24727;51.974;20.868;2023-09-30T10:12:35;22.40;;;17.95;;
38937;SDS011;24727;51.974;20.868;2023-09-30T10:15:48;22.40;;;18.33;;
38937;SDS011;24727;51.974;20.868;2023-09-30T10:20:40;20.90;;;16.55;;
38937;SDS011;24727;51.974;20.868;2023-09-30T10:26:13;22.63;;;15.52;;
38937;SDS011;24727;51.974;20.868;2023-09-30T10:28:47;24.40;;;15.48;;
38937;SDS011;24727;51.974;20.868;2023-09-30T10:31:16;21.35;;;16.65;;
38937;SDS011;24727;51.974;20.868;2023-09-30T10:36:30;24.30;;;18.48;;
38937;SDS011;24727;51.974;20.868;2023-09-30T10:39:03;21.63;;;15.73;;
38937;SDS011;24727;51.974;20.868;2023-09-30T10:46:52;18.15;;;14.85;;
38937;SDS011;24727;51.974;20.868;2023-09-30T10:51:52;17.30;;;13.77;;
38937;SDS011;24727;51.974;20.868;2023-09-30T10:54:24;18.00;;;14.20;;
38937;SDS011;24727;51.974;20.868;2023-09-30T10:56:52;21.58;;;13.15;;
38937;SDS011;24727;51.974;20.868;2023-09-30T10:59:22;14.98;;;12.07;;
38937;SDS011;24727;51.974;20.868;2023-09-30T11:01:50;14.48;;;10.65;;
38937;SDS011;24727;51.974;20.868;2023-09-30T11:04:17;10.73;;;9.55;;
38937;SDS011;24727;51.974;20.868;2023-09-30T11:06:44;11.80;;;8.77;;
38937;SDS011;24727;51.974;20.868;2023-09-30T11:09:19;9.02;;;7.63;;
38937;SDS011;24727;51.974;20.868;2023-09-30T11:11:48;13.00;;;6.25;;
38937;SDS011;24727;51.974;20.868;2023-09-30T11:14:16;7.85;;;4.70;;
38937;SDS011;24727;51.974;20.868;2023-09-30T11:16:51;6.68;;;3.60;;
38937;SDS011;24727;51.974;20.868;2023-09-30T11:19:19;6.60;;;3.83;;
38937;SDS011;24727;51.974;20.868;2023-09-30T11:21:51;7.80;;;3.75;;
38937;SDS011;24727;51.974;20.868;2023-09-30T11:26:45;4.97;;;3.22;;
38937;SDS011;24727;51.974;20.868;2023-09-30T11:29:12;6.15;;;2.85;;
38937;SDS011;24727;51.974;20.868;2023-09-30T11:31:43;5.55;;;3.10;;
38937;SDS011;24727;51.974;20.868;2023-09-30T11:34:10;6.63;;;3.50;;
38937;SDS011;24727;51.974;20.868;2023-09-30T11:36:39;6.43;;;3.97;;
38937;SDS011;24727;51.974;20.868;2023-09-30T11:39:08;6.30;;;4.20;;
38937;SDS011;24727;51.974;20.868;2023-09-30T11:41:39;10.02;;;4.57;;
38937;SDS011;24727;51.974;20.868;2023-09-30T11:44:09;8.75;;;4.35;;
38937;SDS011;24727;51.974;20.868;2023-09-30T11:49:30;9.70;;;4.07;;
38937;SDS011;24727;51.974;20.868;2023-09-30T11:51:59;6.95;;;3.90;;
38937;SDS011;24727;51.974;20.868;2023-09-30T11:54:34;11.43;;;4.22;;
38937;SDS011;24727;51.974;20.868;2023-09-30T11:57:06;6.93;;;4.18;;
38937;SDS011;24727;51.974;20.868;2023-09-30T11:59:40;10.20;;;4.50;;
38937;SDS011;24727;51.974;20.868;2023-09-30T12:02:12;8.38;;;3.92;;
38937;SDS011;24727;51.974;20.868;2023-09-30T12:04:40;6.43;;;4.43;;
38937;SDS011;24727;51.974;20.868;2023-09-30T12:07:10;8.05;;;4.20;;
38937;SDS011;24727;51.974;20.868;2023-09-30T12:09:37;8.27;;;3.63;;
38937;SDS011;24727;51.974;20.868;2023-09-30T12:12:06;8.15;;;4.15;;
38937;SDS011;24727;51.974;20.868;2023-09-30T12:14:36;9.38;;;4.25;;
38937;SDS011;24727;51.974;20.868;2023-09-30T12:17:02;8.45;;;4.07;;
38937;SDS011;24727;51.974;20.868;2023-09-30T12:19:28;7.07;;;3.88;;
38937;SDS011;24727;51.974;20.868;2023-09-30T12:21:54;8.90;;;3.90;;
38937;SDS011;24727;51.974;20.868;2023-09-30T12:24:20;10.63;;;3.80;;
38937;SDS011;24727;51.974;20.868;2023-09-30T12:26:49;7.90;;;3.45;;
38937;SDS011;24727;51.974;20.868;2023-09-30T12:29:20;4.85;;;2.67;;
38937;SDS011;24727;51.974;20.868;2023-09-30T12:31:50;7.57;;;3.88;;
38937;SDS011;24727;51.974;20.868;2023-09-30T12:34:17;7.97;;;3.58;;
38937;SDS011;24727;51.974;20.868;2023-09-30T12:36:43;8.85;;;3.92;;
38937;SDS011;24727;51.974;20.868;2023-09-30T12:39:11;8.02;;;3.50;;
38937;SDS011;24727;51.974;20.868;2023-09-30T12:41:42;6.93;;;3.30;;
38937;SDS011;24727;51.974;20.868;2023-09-30T12:44:09;6.35;;;3.60;;
38937;SDS011;24727;51.974;20.868;2023-09-30T12:46:42;12.07;;;3.70;;
38937;SDS011;24727;51.974;20.868;2023-09-30T12:49:09;6.13;;;3.70;;
38937;SDS011;24727;51.974;20.868;2023-09-30T12:51:35;8.48;;;3.50;;
38937;SDS011;24727;51.974;20.868;2023-09-30T12:54:03;7.90;;;3.40;;
38937;SDS011;24727;51.974;20.868;2023-09-30T12:56:31;6.20;;;2.97;;
38937;SDS011;24727;51.974;20.868;2023-09-30T12:58:58;11.73;;;4.00;;
38937;SDS011;24727;51.974;20.868;2023-09-30T13:01:24;6.10;;;3.03;;
38937;SDS011;24727;51.974;20.868;2023-09-30T13:03:50;8.63;;;2.58;;
38937;SDS011;24727;51.974;20.868;2023-09-30T13:06:19;7.88;;;2.45;;
38937;SDS011;24727;51.974;20.868;2023-09-30T13:08:45;6.13;;;2.40;;
38937;SDS011;24727;51.974;20.868;2023-09-30T13:11:11;8.93;;;2.72;;
38937;SDS011;24727;51.974;20.868;2023-09-30T13:13:39;5.28;;;2.30;;
38937;SDS011;24727;51.974;20.868;2023-09-30T13:16:06;3.67;;;1.95;;
38937;SDS011;24727;51.974;20.868;2023-09-30T13:18:35;4.80;;;2.00;;
38937;SDS011;24727;51.974;20.868;2023-09-30T13:21:01;3.30;;;1.80;;
38937;SDS011;24727;51.974;20.868;2023-09-30T13:23:29;5.30;;;2.17;;
38937;SDS011;24727;51.974;20.868;2023-09-30T13:25:57;6.70;;;2.05;;
38937;SDS011;24727;51.974;20.868;2023-09-30T13:28:23;8.90;;;1.60;;
38937;SDS011;24727;51.974;20.868;2023-09-30T13:30:49;7.57;;;1.63;;
38937;SDS011;24727;51.974;20.868;2023-09-30T13:33:16;4.68;;;1.50;;
38937;SDS011;24727;51.974;20.868;2023-09-30T13:35:45;4.65;;;1.92;;
38937;SDS011;24727;51.974;20.868;2023-09-30T13:38:11;4.32;;;1.65;;
38937;SDS011;24727;51.974;20.868;2023-09-30T13:40:38;3.90;;;1.77;;
38937;SDS011;24727;51.974;20.868;2023-09-30T13:43:05;4.38;;;1.75;;
38937;SDS011;24727;51.974;20.868;2023-09-30T13:45:32;7.95;;;1.90;;
38937;SDS011;24727;51.974;20.868;2023-09-30T13:48:00;4.70;;;2.03;;
38937;SDS011;24727;51.974;20.868;2023-09-30T13:50:27;6.22;;;2.20;;
38937;SDS011;24727;51.974;20.868;2023-09-30T13:52:54;5.82;;;2.45;;
38937;SDS011;24727;51.974;20.868;2023-09-30T13:55:20;9.15;;;2.40;;
38937;SDS011;24727;51.974;20.868;2023-09-30T13:57:46;5.88;;;1.90;;
38937;SDS011;24727;51.974;20.868;2023-09-30T14:00:14;7.50;;;1.98;;
38937;SDS011;24727;51.974;20.868;2023-09-30T14:02:42;7.97;;;2.05;;
38937;SDS011;24727;51.974;20.868;2023-09-30T14:05:09;4.47;;;1.52;;
38937;SDS011;24727;51.974;20.868;2023-09-30T14:07:39;7.40;;;2.30;;
38937;SDS011;24727;51.974;20.868;2023-09-30T14:10:06;4.63;;;1.63;;
38937;SDS011;24727;51.974;20.868;2023-09-30T14:12:35;3.47;;;1.70;;
38937;SDS011;24727;51.974;20.868;2023-09-30T14:15:03;4.65;;;1.60;;
38937;SDS011;24727;51.974;20.868;2023-09-30T14:17:31;6.18;;;1.63;;
38937;SDS011;24727;51.974;20.868;2023-09-30T14:19:57;6.20;;;1.50;;
38937;SDS011;24727;51.974;20.868;2023-09-30T14:22:23;6.13;;;2.13;;
38937;SDS011;24727;51.974;20.868;2023-09-30T14:24:50;5.65;;;2.25;;
38937;SDS011;24727;51.974;20.868;2023-09-30T14:27:18;5.55;;;2.03;;
38937;SDS011;24727;51.974;20.868;2023-09-30T14:29:45;10.00;;;2.22;;
38937;SDS011;24727;51.974;20.868;2023-09-30T14:32:11;9.88;;;2.40;;
38937;SDS011;24727;51.974;20.868;2023-09-30T14:34:37;8.27;;;2.45;;
38937;SDS011;24727;51.974;20.868;2023-09-30T14:37:03;5.65;;;2.30;;
38937;SDS011;24727;51.974;20.868;2023-09-30T14:39:31;7.40;;;2.30;;
38937;SDS011;24727;51.974;20.868;2023-09-30T14:41:57;13.00;;;2.40;;
38937;SDS011;24727;51.974;20.868;2023-09-30T14:44:23;4.40;;;2.20;;
38937;SDS011;24727;51.974;20.868;2023-09-30T14:46:50;6.00;;;2.05;;